createdAt,value
2023-05-16T00:01:57.453Z,1
2023-05-16T00:03:57.511Z,1
2023-05-16T00:05:57.446Z,1
2023-05-16T00:07:57.557Z,1
2023-05-16T00:09:57.453Z,1
2023-05-16T00:12:00.957Z,1
2023-05-16T00:14:00.683Z,1
2023-05-16T00:16:00.580Z,1
2023-05-16T00:18:03.908Z,1
2023-05-16T00:19:57.407Z,1
2023-05-16T00:22:00.618Z,1
2023-05-16T00:23:57.536Z,1
2023-05-16T00:25:57.414Z,1
2023-05-16T00:28:04.209Z,1
2023-05-16T00:29:57.428Z,1
2023-05-16T00:31:57.599Z,1
2023-05-16T00:33:57.433Z,1
2023-05-16T00:36:00.544Z,1
2023-05-16T00:37:57.461Z,1
2023-05-16T00:39:57.334Z,1
2023-05-16T00:42:00.604Z,1
2023-05-16T00:43:57.414Z,1
2023-05-16T00:45:57.450Z,1
2023-05-16T00:48:04.019Z,1
2023-05-16T00:49:57.440Z,1
2023-05-16T00:51:57.472Z,1
2023-05-16T00:54:00.740Z,1
2023-05-16T00:55:57.522Z,1
2023-05-16T00:57:57.454Z,1
2023-05-16T01:00:00.845Z,1
2023-05-16T01:02:00.850Z,1
2023-05-16T01:03:57.884Z,1
2023-05-16T01:05:57.490Z,1
2023-05-16T01:07:57.415Z,1
2023-05-16T01:09:57.493Z,1
2023-05-16T01:11:57.522Z,1
2023-05-16T01:13:57.576Z,1
2023-05-16T01:15:57.593Z,1
2023-05-16T01:17:57.906Z,1
2023-05-16T01:19:57.611Z,1
2023-05-16T01:21:57.458Z,1
2023-05-16T01:24:03.782Z,1
2023-05-16T01:26:00.746Z,1
2023-05-16T01:27:57.497Z,1
2023-05-16T01:29:57.459Z,1
2023-05-16T01:31:57.591Z,1
2023-05-16T01:34:00.689Z,1
2023-05-16T01:35:57.478Z,1
2023-05-16T01:37:57.486Z,1
2023-05-16T01:40:03.829Z,1
2023-05-16T01:41:57.506Z,1
2023-05-16T01:44:00.786Z,1
2023-05-16T01:45:57.472Z,1
2023-05-16T01:48:00.728Z,1
2023-05-16T01:49:57.468Z,1
2023-05-16T01:51:57.670Z,1
2023-05-16T01:53:57.493Z,1
2023-05-16T01:55:57.459Z,1
2023-05-16T01:57:57.461Z,1
2023-05-16T01:59:57.543Z,1
2023-05-16T02:02:00.683Z,1
2023-05-16T02:03:57.643Z,1
2023-05-16T02:06:00.618Z,1
2023-05-16T02:07:57.719Z,1
2023-05-16T02:09:57.510Z,1
2023-05-16T02:12:00.397Z,1
2023-05-16T02:14:04.286Z,1
2023-05-16T02:15:57.628Z,1
2023-05-16T02:19:57.476Z,1
2023-05-16T02:21:57.495Z,1
2023-05-16T02:23:57.679Z,1
2023-05-16T02:25:57.476Z,1
2023-05-16T02:27:57.502Z,1
2023-05-16T02:30:00.703Z,1
2023-05-16T02:32:00.675Z,1
2023-05-16T02:33:57.526Z,1
2023-05-16T02:36:04.332Z,1
2023-05-16T02:37:57.468Z,1
2023-05-16T02:39:57.640Z,0
2023-05-16T02:42:00.706Z,0
2023-05-16T02:43:57.473Z,0
2023-05-16T02:46:00.645Z,0
2023-05-16T02:47:57.615Z,0
2023-05-16T02:51:57.551Z,0.1
2023-05-16T02:53:57.524Z,0.2
2023-05-16T02:55:57.490Z,0.2
2023-05-16T02:57:57.475Z,0.3
2023-05-16T02:59:57.552Z,0.4
2023-05-16T03:01:57.569Z,0.6
2023-05-16T03:04:00.737Z,0.8
2023-05-16T03:05:57.513Z,1.1
2023-05-16T03:07:57.464Z,1.4
2023-05-16T03:09:57.464Z,2
2023-05-16T03:11:57.621Z,2.7
2023-05-16T03:13:58.044Z,3.5
2023-05-16T03:15:57.541Z,4.7
2023-05-16T03:18:00.716Z,6.4
2023-05-16T03:20:00.720Z,8.2
2023-05-16T03:22:00.684Z,10.5
2023-05-16T03:23:57.497Z,12.8
2023-05-16T03:26:00.841Z,16.4
2023-05-16T03:27:57.474Z,20.1
2023-05-16T03:29:57.499Z,24.5
2023-05-16T03:31:57.553Z,28.5
2023-05-16T03:33:57.531Z,33.1
2023-05-16T03:35:57.572Z,38.5
2023-05-16T03:37:57.501Z,44.7
2023-05-16T03:39:57.528Z,49.4
2023-05-16T03:41:57.518Z,57.4
2023-05-16T03:44:00.784Z,63.4
2023-05-16T03:45:57.506Z,70.1
2023-05-16T03:48:04.430Z,77.5
2023-05-16T03:49:57.483Z,81.5
2023-05-16T03:51:57.503Z,85.6
2023-05-16T03:53:57.476Z,94.6
2023-05-16T03:56:00.899Z,104.6
2023-05-16T03:57:57.482Z,115.6
2023-05-16T03:59:57.497Z,127.7
2023-05-16T04:02:00.731Z,148.4
2023-05-16T04:03:57.507Z,172.4
2023-05-16T04:06:00.707Z,200.3
2023-05-16T04:07:57.538Z,221.4
2023-05-16T04:10:00.704Z,244.7
2023-05-16T04:11:57.476Z,257.2
2023-05-16T04:14:00.682Z,284.3
2023-05-16T04:15:57.580Z,284.3
2023-05-16T04:17:57.539Z,298.9
2023-05-16T04:19:57.482Z,298.9
2023-05-16T04:21:57.520Z,314.2
2023-05-16T04:23:57.000Z,330.3
2023-05-16T04:26:00.683Z,347.2
2023-05-16T04:27:57.517Z,383.8
2023-05-16T04:30:00.747Z,445.9
2023-05-16T04:31:57.652Z,518
2023-05-16T04:33:57.522Z,601.8
2023-05-16T04:35:57.500Z,665.1
2023-05-16T04:37:57.545Z,699.2
2023-05-16T04:39:57.585Z,735.1
2023-05-16T04:41:57.523Z,772.8
2023-05-16T04:43:57.523Z,772.8
2023-05-16T04:45:57.615Z,812.4
2023-05-16T04:48:00.868Z,854.1
2023-05-16T04:49:57.406Z,897.8
2023-05-16T04:51:57.530Z,943.9
2023-05-16T04:53:57.421Z,1152.9
2023-05-16T04:55:57.745Z,1212
2023-05-16T04:58:00.711Z,1274.1
2023-05-16T04:59:57.637Z,1274.1
2023-05-16T05:01:57.552Z,1339.4
2023-05-16T05:04:00.703Z,1339.4
2023-05-16T05:06:00.716Z,1274.1
2023-05-16T05:07:57.483Z,1274.1
2023-05-16T05:10:00.811Z,1212
2023-05-16T05:11:57.604Z,1212
2023-05-16T05:13:57.504Z,1152.9
2023-05-16T05:15:57.543Z,1152.9
2023-05-16T05:18:04.395Z,1152.9
2023-05-16T05:20:04.259Z,1152.9
2023-05-16T05:21:57.505Z,1212
2023-05-16T05:23:57.471Z,1212
2023-05-16T05:26:00.732Z,1274.1
2023-05-16T05:27:57.511Z,1339.4
2023-05-16T05:30:03.845Z,1408.1
2023-05-16T05:31:57.595Z,1480.3
2023-05-16T05:33:57.499Z,1636
2023-05-16T05:35:57.530Z,1808
2023-05-16T05:37:57.533Z,1998.2
2023-05-16T05:39:57.490Z,2321.6
2023-05-16T05:41:57.544Z,2565.7
2023-05-16T05:45:57.507Z,2981
2023-05-16T05:47:57.537Z,3133.8
2023-05-16T05:49:57.578Z,3294.5
2023-05-16T05:51:57.580Z,3463.4
2023-05-16T05:54:00.724Z,3641
2023-05-16T05:55:57.540Z,4023.9
2023-05-16T05:58:00.656Z,4023.9
2023-05-16T05:59:57.644Z,4230.2
2023-05-16T06:02:00.712Z,4447.1
2023-05-16T06:03:57.537Z,4447.1
2023-05-16T06:05:57.621Z,4675.1
2023-05-16T06:07:57.557Z,4675.1
2023-05-16T06:09:57.532Z,4914.8
2023-05-16T06:12:00.647Z,4914.8
2023-05-16T06:13:57.537Z,5166.8
2023-05-16T06:16:03.817Z,5166.8
2023-05-16T06:18:03.992Z,4914.8
2023-05-16T06:19:57.522Z,4914.8
2023-05-16T06:21:57.514Z,5166.8
2023-05-16T06:23:57.325Z,5166.8
2023-05-16T06:25:57.516Z,5431.7
2023-05-16T06:27:57.416Z,5710.1
2023-05-16T06:29:57.527Z,6310.7
2023-05-16T06:32:00.940Z,6974.4
2023-05-16T06:34:04.283Z,6974.4
2023-05-16T06:36:04.331Z,7332
2023-05-16T06:37:57.493Z,6974.4
2023-05-16T06:39:57.734Z,6974.4
2023-05-16T06:42:00.648Z,6634.2
2023-05-16T06:44:00.661Z,6634.2
2023-05-16T06:45:57.512Z,6310.7
2023-05-16T06:47:57.701Z,5431.7
2023-05-16T06:49:57.567Z,4914.8
2023-05-16T06:51:57.522Z,4914.8
2023-05-16T06:53:57.501Z,4675.1
2023-05-16T06:55:57.607Z,4675.1
2023-05-16T06:57:57.546Z,4447.1
2023-05-16T07:00:00.785Z,3827.6
2023-05-16T07:01:57.506Z,3641
2023-05-16T07:03:57.674Z,3294.5
2023-05-16T07:06:00.694Z,3294.5
2023-05-16T07:08:01.079Z,3294.5
2023-05-16T07:10:00.703Z,3463.4
2023-05-16T07:11:57.536Z,3827.6
2023-05-16T07:13:57.532Z,4023.9
2023-05-16T07:15:57.514Z,4230.2
2023-05-16T07:20:02.239Z,4447.1
2023-05-16T07:21:57.507Z,4447.1
2023-05-16T07:24:00.736Z,4447.1
2023-05-16T07:25:57.500Z,4447.1
2023-05-16T07:27:57.504Z,4447.1
2023-05-16T07:29:57.559Z,4675.1
2023-05-16T07:32:00.762Z,4675.1
2023-05-16T07:33:57.510Z,4675.1
2023-05-16T07:36:04.323Z,4675.1
2023-05-16T07:38:03.835Z,4675.1
2023-05-16T07:39:57.430Z,4675.1
2023-05-16T07:41:57.520Z,4914.8
2023-05-16T07:43:57.510Z,4914.8
2023-05-16T07:45:57.660Z,5166.8
2023-05-16T07:48:03.815Z,5431.7
2023-05-16T07:49:57.523Z,5431.7
2023-05-16T07:51:57.537Z,5710.1
2023-05-16T07:53:57.518Z,6002.9
2023-05-16T07:56:00.690Z,6002.9
2023-05-16T07:57:57.451Z,6310.7
2023-05-16T07:59:57.509Z,6310.7
2023-05-16T08:01:57.601Z,6310.7
2023-05-16T08:06:00.661Z,6310.7
2023-05-16T08:07:57.512Z,6002.9
2023-05-16T08:09:57.496Z,6002.9
2023-05-16T08:11:57.510Z,6310.7
2023-05-16T08:13:57.545Z,6310.7
2023-05-16T08:15:57.543Z,6002.9
2023-05-16T08:17:57.550Z,6310.7
2023-05-16T08:19:57.551Z,6634.2
2023-05-16T08:22:00.704Z,6974.4
2023-05-16T08:24:00.668Z,7332
2023-05-16T08:25:57.499Z,7332
2023-05-16T08:27:57.430Z,7332
2023-05-16T08:29:57.455Z,7332
2023-05-16T08:31:57.572Z,7332
2023-05-16T08:34:00.684Z,7707.9
2023-05-16T08:35:57.558Z,7332
2023-05-16T08:37:57.235Z,7332
2023-05-16T08:40:03.760Z,6974.4
2023-05-16T08:41:57.542Z,6634.2
2023-05-16T08:43:57.540Z,6634.2
2023-05-16T08:45:57.531Z,6634.2
2023-05-16T08:48:00.920Z,6002.9
2023-05-16T08:50:00.671Z,6310.7
2023-05-16T08:53:57.550Z,7332
2023-05-16T08:55:57.470Z,7707.9
2023-05-16T08:57:57.548Z,8103.1
2023-05-16T08:59:59.305Z,7707.9
2023-05-16T09:02:00.808Z,7707.9
